createdAt,value
2023-02-18T00:01:20.990Z,-12.45
2023-02-18T00:03:50.702Z,-12.46
2023-02-18T00:06:23.512Z,-12.41
2023-02-18T00:08:54.969Z,-12.40
2023-02-18T00:11:24.216Z,-12.45
2023-02-18T00:13:54.205Z,-12.48
2023-02-18T00:16:24.551Z,-12.54
2023-02-18T00:18:57.104Z,-12.60
2023-02-18T00:21:26.409Z,-12.70
2023-02-18T00:23:57.031Z,-12.82
2023-02-18T00:26:26.175Z,-12.93
2023-02-18T00:28:55.393Z,-13.05
2023-02-18T00:31:26.530Z,-13.10
2023-02-18T00:33:56.043Z,-13.15
2023-02-18T00:36:25.605Z,-13.15
2023-02-18T00:38:58.191Z,-13.15
2023-02-18T00:41:29.566Z,-13.21
2023-02-18T00:43:59.977Z,-13.25
2023-02-18T00:46:29.634Z,-13.19
2023-02-18T00:48:58.883Z,-13.18
2023-02-18T00:51:28.351Z,-13.16
2023-02-18T00:53:58.710Z,-13.17
2023-02-18T00:56:27.717Z,-13.13
2023-02-18T00:58:56.797Z,-13.15
2023-02-18T01:01:26.245Z,-13.15
2023-02-18T01:03:55.276Z,-13.30
2023-02-18T01:06:24.300Z,-13.36
2023-02-18T01:08:53.241Z,-13.46
2023-02-18T01:11:23.759Z,-13.52
2023-02-18T01:13:53.250Z,-13.60
2023-02-18T01:16:22.295Z,-13.66
2023-02-18T01:18:51.281Z,-13.76
2023-02-18T01:21:20.374Z,-13.79
2023-02-18T01:23:49.542Z,-13.75
2023-02-18T01:26:18.692Z,-13.78
2023-02-18T01:28:49.202Z,-13.83
2023-02-18T01:31:18.796Z,-13.87
2023-02-18T01:33:48.027Z,-13.87
2023-02-18T01:36:18.253Z,-13.91
2023-02-18T01:38:47.279Z,-13.97
2023-02-18T01:41:16.334Z,-14.01
2023-02-18T01:43:45.449Z,-14.05
2023-02-18T01:46:24.314Z,-14.07
2023-02-18T01:48:56.850Z,-14.06
2023-02-18T01:51:28.700Z,-14.07
2023-02-18T01:54:02.038Z,-14.10
2023-02-18T01:56:34.765Z,-14.18
2023-02-18T01:59:09.650Z,-14.22
2023-02-18T02:01:40.706Z,-14.20
2023-02-18T02:04:10.474Z,-14.21
2023-02-18T02:06:39.574Z,-14.24
2023-02-18T02:09:11.839Z,-14.27
2023-02-18T02:12:19.290Z,-14.30
2023-02-18T02:15:20.073Z,-14.34
2023-02-18T02:18:06.308Z,-14.35
2023-02-18T02:21:07.323Z,-14.35
2023-02-18T02:24:09.290Z,-14.37
2023-02-18T02:27:17.091Z,-14.26
2023-02-18T02:30:25.576Z,-14.04
2023-02-18T02:33:27.563Z,-13.81
2023-02-18T02:36:04.608Z,-13.68
2023-02-18T02:38:40.407Z,-13.59
2023-02-18T02:41:21.349Z,-13.53
2023-02-18T02:44:03.121Z,-13.36
2023-02-18T02:46:38.128Z,-13.14
2023-02-18T02:49:20.872Z,-12.94
2023-02-18T02:51:57.971Z,-12.70
2023-02-18T02:54:29.275Z,-12.53
2023-02-18T02:57:11.444Z,-12.39
2023-02-18T02:59:53.551Z,-12.26
2023-02-18T03:02:33.194Z,-12.13
2023-02-18T03:05:19.324Z,-12.05
2023-02-18T03:07:57.158Z,-11.92
2023-02-18T03:10:38.051Z,-11.84
2023-02-18T03:13:17.838Z,-11.75
2023-02-18T03:15:55.930Z,-11.68
2023-02-18T03:18:34.283Z,-11.59
2023-02-18T03:21:10.928Z,-11.51
2023-02-18T03:23:48.080Z,-11.42
2023-02-18T03:26:19.336Z,-11.36
2023-02-18T03:28:52.832Z,-11.29
2023-02-18T03:31:26.837Z,-11.23
2023-02-18T03:34:01.106Z,-11.16
2023-02-18T03:36:31.396Z,-11.15
2023-02-18T03:39:06.509Z,-11.08
2023-02-18T03:41:35.886Z,-11.00
2023-02-18T03:44:07.754Z,-10.94
2023-02-18T03:46:38.121Z,-10.91
2023-02-18T03:49:07.489Z,-10.88
2023-02-18T03:51:37.818Z,-10.86
2023-02-18T03:54:08.361Z,-10.82
2023-02-18T03:56:38.318Z,-10.83
2023-02-18T03:59:07.345Z,-10.79
2023-02-18T04:01:36.758Z,-10.75
2023-02-18T04:04:06.250Z,-10.71
2023-02-18T04:06:35.380Z,-10.71
2023-02-18T04:09:09.279Z,-10.68
2023-02-18T04:11:41.599Z,-10.64
2023-02-18T04:14:10.645Z,-10.61
2023-02-18T04:16:39.696Z,-10.56
2023-02-18T04:19:08.828Z,-10.49
2023-02-18T04:21:37.881Z,-10.45
2023-02-18T04:24:07.352Z,-10.43
2023-02-18T04:26:36.470Z,-10.43
2023-02-18T04:29:07.074Z,-10.42
2023-02-18T04:31:36.242Z,-10.38
2023-02-18T04:34:05.767Z,-10.36
2023-02-18T04:36:35.052Z,-10.34
2023-02-18T04:39:04.296Z,-10.29
2023-02-18T04:41:33.329Z,-10.26
2023-02-18T04:44:02.348Z,-10.23
2023-02-18T04:46:33.339Z,-10.15
2023-02-18T04:49:02.421Z,-10.03
2023-02-18T04:51:31.461Z,-9.95
2023-02-18T04:54:00.461Z,-9.88
2023-02-18T04:56:29.523Z,-9.77
2023-02-18T04:58:58.767Z,-9.71
2023-02-18T05:01:27.809Z,-9.67
2023-02-18T05:03:58.306Z,-9.59
2023-02-18T05:06:27.598Z,-9.49
2023-02-18T05:08:56.630Z,-9.46
2023-02-18T05:11:25.688Z,-9.42
2023-02-18T05:13:54.775Z,-9.37
2023-02-18T05:16:23.760Z,-9.35
2023-02-18T05:18:52.795Z,-9.39
2023-02-18T05:21:23.424Z,-9.32
2023-02-18T05:23:52.573Z,-9.26
2023-02-18T05:26:21.833Z,-9.15
2023-02-18T05:28:50.837Z,-9.07
2023-02-18T05:31:19.893Z,-9.08
2023-02-18T05:33:48.926Z,-9.02
2023-02-18T05:36:18.241Z,-8.98
2023-02-18T05:38:48.693Z,-8.96
2023-02-18T05:41:17.761Z,-8.90
2023-02-18T05:44:04.509Z,-8.85
2023-02-18T05:46:33.625Z,-8.82
2023-02-18T05:49:02.772Z,-8.86
2023-02-18T05:51:32.062Z,-8.84
2023-02-18T05:54:02.662Z,-8.75
2023-02-18T05:56:31.850Z,-8.67
2023-02-18T05:59:00.910Z,-8.53
2023-02-18T06:01:29.942Z,-8.45
2023-02-18T06:03:59.023Z,-8.45
2023-02-18T06:06:28.254Z,-8.43
2023-02-18T06:08:57.301Z,-8.39
2023-02-18T06:11:27.737Z,-8.43
2023-02-18T06:13:56.783Z,-8.42
2023-02-18T06:16:26.058Z,-8.40
2023-02-18T06:18:55.072Z,-8.25
2023-02-18T06:21:24.103Z,-8.29
2023-02-18T06:23:53.138Z,-8.19
2023-02-18T06:26:22.231Z,-8.08
2023-02-18T06:28:52.766Z,-7.99
2023-02-18T06:31:21.949Z,-7.99
2023-02-18T06:33:51.035Z,-7.96
2023-02-18T06:36:20.131Z,-8.02
2023-02-18T06:38:49.257Z,-7.99
2023-02-18T06:41:18.439Z,-7.85
2023-02-18T06:43:47.517Z,-7.73
2023-02-18T06:46:18.091Z,-7.69
2023-02-18T06:48:47.253Z,-7.73
2023-02-18T06:51:17.438Z,-7.70
2023-02-18T06:53:47.204Z,-7.60
2023-02-18T06:56:16.190Z,-7.57
2023-02-18T06:58:45.237Z,-7.66
2023-02-18T07:01:14.420Z,-7.54
2023-02-18T07:03:44.949Z,-7.38
2023-02-18T07:06:13.949Z,-7.45
2023-02-18T07:08:43.208Z,-7.03
2023-02-18T07:11:12.327Z,-6.97
2023-02-18T07:13:41.441Z,-6.82
2023-02-18T07:16:10.876Z,-6.80
2023-02-18T07:18:40.122Z,-6.15
2023-02-18T07:21:10.857Z,-6.16
2023-02-18T07:23:40.183Z,-6.27
2023-02-18T07:26:11.253Z,-6.48
2023-02-18T07:28:41.449Z,-6.48
2023-02-18T07:31:11.135Z,-6.59
2023-02-18T07:33:40.191Z,-6.66
2023-02-18T07:36:11.633Z,-6.67
2023-02-18T07:38:42.060Z,-6.67
2023-02-18T07:41:23.357Z,-6.63
2023-02-18T07:43:52.840Z,-6.64
2023-02-18T07:46:22.459Z,-6.50
2023-02-18T07:48:51.493Z,-6.39
2023-02-18T07:51:24.910Z,-6.25
2023-02-18T07:53:54.297Z,-6.13
2023-02-18T07:56:23.717Z,-6.12
2023-02-18T07:58:52.738Z,-6.50
2023-02-18T08:01:21.795Z,-6.19
2023-02-18T08:03:50.833Z,-6.20
2023-02-18T08:06:27.367Z,-5.98
2023-02-18T08:08:56.367Z,-6.08
2023-02-18T08:11:25.534Z,-5.99
2023-02-18T08:13:54.602Z,-5.97
2023-02-18T08:16:24.355Z,-5.81
2023-02-18T08:18:54.569Z,-5.87
2023-02-18T08:21:26.874Z,-5.73
2023-02-18T08:23:56.075Z,-5.53
2023-02-18T08:26:25.094Z,-5.38
2023-02-18T08:28:54.539Z,-5.46
2023-02-18T08:31:27.018Z,-5.34
2023-02-18T08:33:58.379Z,-5.33
2023-02-18T08:36:29.396Z,-5.46
2023-02-18T08:38:59.105Z,-5.44
2023-02-18T08:41:28.141Z,-5.31
2023-02-18T08:43:57.310Z,-5.39
2023-02-18T08:46:35.020Z,-5.25
2023-02-18T08:49:06.464Z,-5.28
2023-02-18T08:51:37.134Z,-5.28
2023-02-18T08:54:06.698Z,-4.80
2023-02-18T08:56:35.913Z,-4.56
2023-02-18T08:59:05.019Z,-3.95
2023-02-18T09:01:34.304Z,-4.01
2023-02-18T09:04:03.396Z,-3.91
2023-02-18T09:06:33.547Z,-3.87
2023-02-18T09:09:05.453Z,-3.60
2023-02-18T09:11:35.232Z,-3.49
2023-02-18T09:14:04.311Z,-3.48
2023-02-18T09:16:33.313Z,-3.53
2023-02-18T09:19:02.314Z,-3.37
2023-02-18T09:21:31.743Z,-3.68
2023-02-18T09:24:01.052Z,-3.87
2023-02-18T09:26:31.706Z,-3.88
2023-02-18T09:29:00.653Z,-4.20
2023-02-18T09:31:30.858Z,-4.12
2023-02-18T09:34:02.353Z,-3.98
2023-02-18T09:36:31.869Z,-4.14
2023-02-18T09:39:01.023Z,-4.09
2023-02-18T09:41:39.518Z,-4.11
2023-02-18T09:44:15.679Z,-3.99
2023-02-18T09:46:52.955Z,-4.00
2023-02-18T09:49:26.876Z,-4.06
2023-02-18T09:51:57.492Z,-4.21
2023-02-18T09:54:29.008Z,-4.06
2023-02-18T09:57:01.134Z,-3.89
2023-02-18T09:59:31.456Z,-3.75
2023-02-18T10:02:05.654Z,-3.74
2023-02-18T10:04:41.868Z,-3.83
2023-02-18T10:07:21.124Z,-3.64
2023-02-18T10:09:53.274Z,-3.71
2023-02-18T10:12:26.172Z,-3.57
2023-02-18T10:14:57.542Z,-3.75
2023-02-18T10:17:29.396Z,-3.81
2023-02-18T10:20:01.502Z,-3.67
2023-02-18T10:22:33.213Z,-3.68
2023-02-18T10:25:05.424Z,-3.85
2023-02-18T10:27:40.377Z,-3.73
2023-02-18T10:30:23.845Z,-3.72
2023-02-18T10:32:57.833Z,-3.61
2023-02-18T10:35:32.742Z,-3.42
2023-02-18T10:38:09.710Z,-3.59
2023-02-18T10:40:50.847Z,-3.70
2023-02-18T10:43:27.273Z,-3.73
2023-02-18T10:46:05.696Z,-3.71
2023-02-18T10:48:48.586Z,-3.36
2023-02-18T10:51:22.167Z,-3.15
2023-02-18T10:53:52.980Z,-3.35
2023-02-18T10:56:44.275Z,-3.73
2023-02-18T10:59:20.840Z,-3.94
2023-02-18T11:01:57.697Z,-3.72
2023-02-18T11:04:35.609Z,-3.71
2023-02-18T11:07:07.758Z,-3.49
2023-02-18T11:09:46.877Z,-3.44
2023-02-18T11:12:19.401Z,-3.39
2023-02-18T11:14:52.555Z,-3.39
2023-02-18T11:17:27.319Z,-3.52
2023-02-18T11:19:58.951Z,-3.41
2023-02-18T11:22:33.235Z,-3.39
2023-02-18T11:25:04.806Z,-3.65
2023-02-18T11:27:43.386Z,-3.76
2023-02-18T11:30:23.176Z,-3.89
2023-02-18T11:32:56.347Z,-3.87
2023-02-18T11:35:28.722Z,-3.84
2023-02-18T11:38:00.128Z,-3.97
2023-02-18T11:40:33.246Z,-4.06
2023-02-18T11:43:08.511Z,-3.92
2023-02-18T11:45:38.984Z,-3.65
2023-02-18T11:48:16.139Z,-3.71
2023-02-18T11:50:45.706Z,-3.79
2023-02-18T11:53:30.114Z,-3.77
2023-02-18T11:56:01.546Z,-3.88
2023-02-18T11:58:41.919Z,-4.06
2023-02-18T12:01:17.163Z,-4.01
2023-02-18T12:03:49.823Z,-4.06
2023-02-18T12:06:26.251Z,-3.98
2023-02-18T12:08:59.880Z,-4.03
2023-02-18T12:11:33.016Z,-4.10
2023-02-18T12:14:02.019Z,-4.18
2023-02-18T12:16:41.873Z,-4.06
2023-02-18T12:19:29.083Z,-4.06
2023-02-18T12:22:05.052Z,-3.79
2023-02-18T12:24:48.972Z,-3.63
2023-02-18T12:27:22.500Z,-3.56
2023-02-18T12:30:10.920Z,-3.38
2023-02-18T12:32:49.431Z,-3.38
2023-02-18T12:35:38.785Z,-3.46
2023-02-18T12:38:27.799Z,-3.44
2023-02-18T12:41:16.238Z,-3.70
2023-02-18T12:43:57.332Z,-3.84
2023-02-18T12:46:42.405Z,-3.93
2023-02-18T12:49:48.729Z,-4.19
2023-02-18T12:52:36.337Z,-4.53
2023-02-18T12:55:27.255Z,-4.81
2023-02-18T12:58:06.938Z,-5.06
2023-02-18T13:01:04.397Z,-5.28
2023-02-18T13:04:05.874Z,-5.33
2023-02-18T13:06:55.374Z,-5.41
2023-02-18T13:09:36.910Z,-5.44
2023-02-18T13:12:10.641Z,-5.49
2023-02-18T13:14:46.768Z,-5.47
2023-02-18T13:17:18.478Z,-5.49
2023-02-18T13:19:51.801Z,-5.49
2023-02-18T13:22:25.356Z,-5.57
2023-02-18T13:24:59.952Z,-5.65
2023-02-18T13:27:37.084Z,-5.64
2023-02-18T13:30:23.142Z,-5.67
2023-02-18T13:33:14.807Z,-5.64
2023-02-18T13:35:50.744Z,-5.58
2023-02-18T13:38:50.023Z,-5.60
2023-02-18T13:41:21.140Z,-5.56
2023-02-18T13:43:50.361Z,-5.60
2023-02-18T13:46:21.755Z,-5.63
2023-02-18T13:48:53.066Z,-5.69
2023-02-18T13:51:32.246Z,-5.72
2023-02-18T13:54:08.088Z,-5.75
2023-02-18T13:56:43.520Z,-5.87
2023-02-18T13:59:19.128Z,-5.90
2023-02-18T14:01:50.850Z,-5.91
2023-02-18T14:04:54.734Z,-5.93
2023-02-18T14:07:48.049Z,-5.90
2023-02-18T14:10:38.128Z,-5.88
2023-02-18T14:13:26.310Z,-5.88
2023-02-18T14:15:58.261Z,-5.86
2023-02-18T14:19:01.388Z,-5.84
2023-02-18T14:21:44.289Z,-5.86
2023-02-18T14:24:14.086Z,-5.92
2023-02-18T14:26:48.787Z,-5.92
2023-02-18T14:29:28.114Z,-5.91
2023-02-18T14:32:05.131Z,-5.90
2023-02-18T14:34:59.930Z,-5.88
2023-02-18T14:37:53.407Z,-5.86
2023-02-18T14:40:59.954Z,-5.89
2023-02-18T14:43:41.347Z,-5.91
2023-02-18T14:46:27.705Z,-5.92
2023-02-18T14:49:21.717Z,-5.97
2023-02-18T14:51:54.058Z,-6.01
2023-02-18T14:54:26.638Z,-6.04
2023-02-18T14:56:59.178Z,-6.06
2023-02-18T14:59:35.362Z,-6.10
2023-02-18T15:02:04.680Z,-6.18
2023-02-18T15:04:33.998Z,-6.22
2023-02-18T15:07:05.269Z,-6.28
2023-02-18T15:09:34.347Z,-6.31
2023-02-18T15:12:05.849Z,-6.35
2023-02-18T15:14:39.967Z,-6.39
2023-02-18T15:17:15.841Z,-6.50
2023-02-18T15:19:50.723Z,-6.58
2023-02-18T15:22:22.484Z,-6.66
2023-02-18T15:24:53.143Z,-6.77
2023-02-18T15:27:25.032Z,-6.80
2023-02-18T15:30:00.209Z,-6.84
2023-02-18T15:32:33.071Z,-6.92
2023-02-18T15:35:04.294Z,-6.98
2023-02-18T15:37:33.946Z,-7.02
2023-02-18T15:40:04.888Z,-7.05
2023-02-18T15:42:35.917Z,-7.11
2023-02-18T15:45:19.092Z,-7.06
2023-02-18T15:47:51.704Z,-7.10
2023-02-18T15:50:23.766Z,-7.14
2023-02-18T15:52:54.860Z,-7.20
2023-02-18T15:55:28.516Z,-7.27
2023-02-18T15:57:58.650Z,-7.25
2023-02-18T16:00:33.513Z,-7.29
2023-02-18T16:03:11.111Z,-6.97
2023-02-18T16:05:42.913Z,-6.70
2023-02-18T16:08:17.031Z,-6.25
2023-02-18T16:10:54.652Z,-6.35
2023-02-18T16:13:26.812Z,-6.55
2023-02-18T16:16:00.785Z,-6.63
2023-02-18T16:18:32.915Z,-6.71
2023-02-18T16:21:06.439Z,-6.71
2023-02-18T16:23:42.531Z,-6.55
2023-02-18T16:26:21.119Z,-6.45
2023-02-18T16:28:53.146Z,-6.34
2023-02-18T16:31:23.758Z,-6.29
2023-02-18T16:33:53.843Z,-6.08
2023-02-18T16:36:25.177Z,-6.37
2023-02-18T16:38:54.628Z,-6.28
2023-02-18T16:41:23.779Z,-6.34
2023-02-18T16:43:54.084Z,-6.44
2023-02-18T16:46:25.734Z,-6.46
2023-02-18T16:48:57.099Z,-6.64
2023-02-18T16:51:31.670Z,-6.37
2023-02-18T16:54:00.903Z,-6.40
2023-02-18T16:56:33.749Z,-6.58
2023-02-18T16:59:03.064Z,-6.98
2023-02-18T17:01:37.269Z,-7.18
2023-02-18T17:04:07.384Z,-7.24
2023-02-18T17:06:36.585Z,-7.26
2023-02-18T17:09:17.983Z,-7.31
2023-02-18T17:11:48.665Z,-7.40
2023-02-18T17:14:18.845Z,-7.43
2023-02-18T17:16:50.250Z,-7.45
2023-02-18T17:19:19.709Z,-7.50
2023-02-18T17:21:49.145Z,-7.55
2023-02-18T17:24:19.896Z,-7.55
2023-02-18T17:26:48.920Z,-7.48
2023-02-18T17:29:17.970Z,-7.52
2023-02-18T17:31:51.555Z,-7.54
2023-02-18T17:34:25.912Z,-7.51
2023-02-18T17:36:55.543Z,-7.55
2023-02-18T17:39:24.874Z,-7.54
2023-02-18T17:41:54.367Z,-7.57
2023-02-18T17:44:24.899Z,-7.57
2023-02-18T17:46:55.269Z,-7.61
2023-02-18T17:49:24.271Z,-7.63
2023-02-18T17:51:53.412Z,-7.57
2023-02-18T17:54:25.738Z,-7.55
2023-02-18T17:56:56.878Z,-7.55
2023-02-18T17:59:26.025Z,-7.55
2023-02-18T18:01:56.521Z,-7.58
2023-02-18T18:04:25.613Z,-7.62
2023-02-18T18:06:55.650Z,-7.57
2023-02-18T18:09:24.935Z,-7.56
2023-02-18T18:11:54.045Z,-7.59
2023-02-18T18:14:23.213Z,-7.62
2023-02-18T18:16:52.204Z,-7.57
2023-02-18T18:19:22.704Z,-7.56
2023-02-18T18:21:51.771Z,-7.55
2023-02-18T18:24:20.817Z,-7.55
2023-02-18T18:26:52.368Z,-7.54
2023-02-18T18:29:21.462Z,-7.49
2023-02-18T18:31:50.517Z,-7.52
2023-02-18T18:34:23.264Z,-7.53
2023-02-18T18:36:53.891Z,-7.47
2023-02-18T18:39:22.898Z,-7.46
2023-02-18T18:41:51.937Z,-7.49
2023-02-18T18:44:20.990Z,-7.53
2023-02-18T18:46:49.977Z,-7.50
2023-02-18T18:49:18.944Z,-7.47
2023-02-18T18:51:50.355Z,-7.49
2023-02-18T18:54:21.077Z,-7.41
2023-02-18T18:56:56.161Z,-7.36
2023-02-18T18:59:30.440Z,-7.34
2023-02-18T19:02:02.943Z,-7.32
2023-02-18T19:04:32.013Z,-7.32
2023-02-18T19:07:01.250Z,-6.78
2023-02-18T19:09:31.865Z,-6.66
2023-02-18T19:12:00.841Z,-6.78
2023-02-18T19:14:29.838Z,-7.08
2023-02-18T19:16:59.033Z,-7.28
2023-02-18T19:19:28.133Z,-7.38
2023-02-18T19:21:57.181Z,-7.47
2023-02-18T19:24:26.355Z,-7.50
2023-02-18T19:26:56.788Z,-7.54
2023-02-18T19:29:25.998Z,-7.56
2023-02-18T19:31:55.337Z,-7.55
2023-02-18T19:34:24.341Z,-7.55
2023-02-18T19:36:53.412Z,-7.59
2023-02-18T19:39:22.390Z,-7.61
2023-02-18T19:41:51.471Z,-7.65
2023-02-18T19:44:21.852Z,-7.69
2023-02-18T19:46:50.988Z,-7.68
2023-02-18T19:49:20.036Z,-7.69
2023-02-18T19:51:49.118Z,-7.72
2023-02-18T19:54:18.361Z,-7.75
2023-02-18T19:56:47.514Z,-7.75
2023-02-18T19:59:16.485Z,-7.77
2023-02-18T20:01:46.926Z,-7.77
2023-02-18T20:04:15.984Z,-7.83
2023-02-18T20:06:45.089Z,-7.85
2023-02-18T20:09:14.861Z,-7.87
2023-02-18T20:11:43.898Z,-7.92
2023-02-18T20:14:12.883Z,-7.92
2023-02-18T20:16:48.238Z,-7.93
2023-02-18T20:19:17.470Z,-8.02
2023-02-18T20:21:46.461Z,-8.07
2023-02-18T20:24:16.520Z,-8.11
2023-02-18T20:26:45.904Z,-8.10
2023-02-18T20:29:16.081Z,-8.10
2023-02-18T20:31:45.248Z,-8.14
2023-02-18T20:34:16.280Z,-8.11
2023-02-18T20:36:46.101Z,-8.17
2023-02-18T20:39:16.600Z,-8.18
2023-02-18T20:41:46.801Z,-8.18
2023-02-18T20:44:17.281Z,-8.25
2023-02-18T20:46:46.812Z,-8.32
2023-02-18T20:49:20.009Z,-8.34
2023-02-18T20:51:50.186Z,-8.38
2023-02-18T20:54:20.726Z,-8.40
2023-02-18T20:56:51.229Z,-8.41
2023-02-18T20:59:21.642Z,-8.44
2023-02-18T21:01:50.868Z,-8.50
2023-02-18T21:04:21.758Z,-8.50
2023-02-18T21:06:50.736Z,-8.49
2023-02-18T21:09:20.091Z,-8.54
2023-02-18T21:11:50.092Z,-8.57
2023-02-18T21:14:19.080Z,-8.62
2023-02-18T21:16:48.339Z,-8.56
2023-02-18T21:19:19.498Z,-8.60
2023-02-18T21:21:52.209Z,-8.63
2023-02-18T21:24:21.232Z,-8.67
2023-02-18T21:26:50.400Z,-8.62
2023-02-18T21:29:19.417Z,-8.62
2023-02-18T21:31:48.414Z,-8.56
2023-02-18T21:34:17.730Z,-8.56
2023-02-18T21:36:46.737Z,-8.57
2023-02-18T21:39:17.478Z,-8.55
2023-02-18T21:41:46.443Z,-8.60
2023-02-18T21:44:15.659Z,-8.60
2023-02-18T21:46:44.665Z,-8.59
2023-02-18T21:49:13.611Z,-8.59
2023-02-18T21:52:00.670Z,-8.54
2023-02-18T21:54:33.877Z,-8.53
2023-02-18T21:57:05.082Z,-8.52
2023-02-18T21:59:35.627Z,-8.52
2023-02-18T22:02:06.917Z,-8.53
2023-02-18T22:04:38.733Z,-8.57
2023-02-18T22:07:09.008Z,-8.62
2023-02-18T22:09:39.842Z,-8.61
2023-02-18T22:12:09.372Z,-8.64
2023-02-18T22:14:38.666Z,-8.61
2023-02-18T22:17:07.949Z,-8.63
2023-02-18T22:19:37.356Z,-8.66
2023-02-18T22:22:06.418Z,-8.68
2023-02-18T22:24:35.591Z,-8.67
2023-02-18T22:27:06.117Z,-8.70
2023-02-18T22:29:35.174Z,-8.68
2023-02-18T22:32:04.403Z,-8.72
2023-02-18T22:34:33.431Z,-8.73
2023-02-18T22:37:03.341Z,-8.78
2023-02-18T22:39:32.562Z,-8.81
2023-02-18T22:42:01.537Z,-8.84
2023-02-18T22:44:31.998Z,-8.86
2023-02-18T22:47:01.089Z,-8.90
2023-02-18T22:49:30.276Z,-8.95
2023-02-18T22:51:59.221Z,-8.96
2023-02-18T22:54:28.199Z,-8.98
2023-02-18T22:56:57.288Z,-8.96
2023-02-18T22:59:26.398Z,-8.92
2023-02-18T23:01:56.823Z,-8.91
2023-02-18T23:04:25.895Z,-8.85
2023-02-18T23:06:56.168Z,-8.81
2023-02-18T23:09:27.393Z,-8.81
2023-02-18T23:11:58.894Z,-8.80
2023-02-18T23:14:29.905Z,-8.83
2023-02-18T23:17:18.110Z,-8.88
2023-02-18T23:19:49.010Z,-8.96
2023-02-18T23:22:20.769Z,-9.02
2023-02-18T23:24:50.393Z,-9.07
2023-02-18T23:27:19.584Z,-9.10
2023-02-18T23:29:48.682Z,-9.16
2023-02-18T23:32:19.313Z,-9.20
2023-02-18T23:34:48.350Z,-9.24
2023-02-18T23:37:17.381Z,-9.28
2023-02-18T23:39:47.476Z,-9.34
2023-02-18T23:42:17.190Z,-9.31
2023-02-18T23:44:50.210Z,-9.30
2023-02-18T23:47:20.578Z,-9.32
2023-02-18T23:49:49.514Z,-9.29
2023-02-18T23:52:18.681Z,-9.30
2023-02-18T23:54:47.798Z,-9.26
2023-02-18T23:57:16.781Z,-9.24
2023-02-18T23:59:45.785Z,-9.22
